Collierville, Tennessee
Current Conditions -  °F | °C
As of 9:55 PM on Friday 19 Dec 2014 (Local Time) from KOLV Reporting Station
Overcast Overcast  
Wind Chill: 36°   Ceiling: 6000
Heat Index: 39°   Visibility: 9mi
Dew Point: 37°   Wind: 5mph
Humidity: 93%   Direction: 40°NE
Pressure: 30.24"   Gusts: NA
Location:  35.04°N, 89.67°W
Report Text: KOLV 200355Z AUTO 04004KT 9SM BKN060 OVC090 04/03 A3024 RMK A01 P000
Loading
Personal Weather Stations






























Interactive Weather Map New forecast layout! Learn more

10-Day Weather Forecast

Advertisements
Track Severe Weather on mobile